createdAt,value
2023-05-10T00:00:44.601Z,526.00
2023-05-10T00:01:44.637Z,526.00
2023-05-10T00:02:44.665Z,523.00
2023-05-10T00:03:44.793Z,524.00
2023-05-10T00:04:44.630Z,521.00
2023-05-10T00:05:44.646Z,519.00
2023-05-10T00:06:44.649Z,522.00
2023-05-10T00:07:44.677Z,524.00
2023-05-10T00:08:44.682Z,527.00
2023-05-10T00:09:44.760Z,526.00
2023-05-10T00:10:44.834Z,527.00
2023-05-10T00:11:44.917Z,524.00
2023-05-10T00:12:45.026Z,524.00
2023-05-10T00:13:45.086Z,524.00
2023-05-10T00:14:45.135Z,525.00
2023-05-10T00:15:45.238Z,525.00
2023-05-10T00:16:45.358Z,523.00
2023-05-10T00:17:45.374Z,521.00
2023-05-10T00:18:45.443Z,522.00
2023-05-10T00:19:45.573Z,521.00
2023-05-10T00:20:45.568Z,523.00
2023-05-10T00:21:45.679Z,526.00
2023-05-10T00:22:45.729Z,525.00
2023-05-10T00:23:45.809Z,525.00
2023-05-10T00:24:45.887Z,523.00
2023-05-10T00:25:45.963Z,520.00
2023-05-10T00:26:46.038Z,522.00
2023-05-10T00:27:46.112Z,524.00
2023-05-10T00:28:46.215Z,523.00
2023-05-10T00:29:46.291Z,522.00
2023-05-10T00:30:46.343Z,521.00
2023-05-10T00:31:46.441Z,520.00
2023-05-10T00:32:46.549Z,521.00
2023-05-10T00:33:46.566Z,521.00
2023-05-10T00:34:46.648Z,519.00
2023-05-10T00:35:46.723Z,521.00
2023-05-10T00:36:46.797Z,519.00
2023-05-10T00:37:46.867Z,519.00
2023-05-10T00:38:46.976Z,522.00
2023-05-10T00:39:47.031Z,522.00
2023-05-10T00:40:47.106Z,521.00
2023-05-10T00:41:47.195Z,519.00
2023-05-10T00:42:47.267Z,520.00
2023-05-10T00:43:47.333Z,520.00
2023-05-10T00:44:47.415Z,520.00
2023-05-10T00:45:47.513Z,522.00
2023-05-10T00:46:47.561Z,524.00
2023-05-10T00:47:47.722Z,525.00
2023-05-10T00:48:47.732Z,526.00
2023-05-10T00:49:47.822Z,527.00
2023-05-10T00:50:47.899Z,526.00
2023-05-10T00:51:47.939Z,522.00
2023-05-10T00:52:48.017Z,520.00
2023-05-10T00:53:48.115Z,521.00
2023-05-10T00:54:48.179Z,520.00
2023-05-10T00:55:48.247Z,518.00
2023-05-10T00:56:48.333Z,520.00
2023-05-10T00:57:48.414Z,523.00
2023-05-10T00:58:48.497Z,523.00
2023-05-10T00:59:48.563Z,524.00
2023-05-10T01:00:48.644Z,522.00
2023-05-10T01:01:48.779Z,522.00
2023-05-10T01:02:48.898Z,522.00
2023-05-10T01:03:48.831Z,522.00
2023-05-10T01:04:48.956Z,521.00
2023-05-10T01:05:48.973Z,520.00
2023-05-10T01:06:49.016Z,519.00
2023-05-10T01:07:49.094Z,519.00
2023-05-10T01:08:49.146Z,520.00
2023-05-10T01:09:49.227Z,520.00
2023-05-10T01:10:49.237Z,520.00
2023-05-10T01:11:49.242Z,521.00
2023-05-10T01:12:49.348Z,519.00
2023-05-10T01:13:49.306Z,519.00
2023-05-10T01:14:49.273Z,519.00
2023-05-10T01:15:49.307Z,516.00
2023-05-10T01:16:49.308Z,516.00
2023-05-10T01:17:49.386Z,517.00
2023-05-10T01:18:49.400Z,517.00
2023-05-10T01:19:49.457Z,518.00
2023-05-10T01:20:49.531Z,518.00
2023-05-10T01:21:49.616Z,519.00
2023-05-10T01:22:49.697Z,517.00
2023-05-10T01:23:49.810Z,515.00
2023-05-10T01:24:49.853Z,516.00
2023-05-10T01:25:49.933Z,515.00
2023-05-10T01:26:50.016Z,517.00
2023-05-10T01:27:50.097Z,519.00
2023-05-10T01:28:50.177Z,519.00
2023-05-10T01:30:01.462Z,519.00
2023-05-10T01:30:51.260Z,518.00
2023-05-10T01:31:50.356Z,518.00
2023-05-10T01:32:50.318Z,518.00
2023-05-10T01:33:50.302Z,519.00
2023-05-10T01:34:50.289Z,518.00
2023-05-10T01:35:50.301Z,516.00
2023-05-10T01:36:50.332Z,516.00
2023-05-10T01:37:50.343Z,517.00
2023-05-10T01:38:50.421Z,516.00
2023-05-10T01:39:50.473Z,514.00
2023-05-10T01:40:50.563Z,513.00
2023-05-10T01:41:50.655Z,512.00
2023-05-10T01:42:50.718Z,511.00
2023-05-10T01:43:50.822Z,511.00
2023-05-10T01:44:50.878Z,510.00
2023-05-10T01:45:50.961Z,508.00
2023-05-10T01:46:51.067Z,509.00
2023-05-10T01:47:51.125Z,508.00
2023-05-10T01:48:51.176Z,508.00
2023-05-10T01:49:51.252Z,507.00
2023-05-10T01:50:51.332Z,504.00
2023-05-10T01:51:51.427Z,504.00
2023-05-10T01:52:51.505Z,506.00
2023-05-10T01:53:51.580Z,509.00
2023-05-10T01:54:51.656Z,510.00
2023-05-10T01:55:51.732Z,510.00
2023-05-10T01:56:51.809Z,512.00
2023-05-10T01:57:51.900Z,513.00
2023-05-10T01:58:51.978Z,509.00
2023-05-10T01:59:52.060Z,507.00
2023-05-10T02:00:52.148Z,505.00
2023-05-10T02:01:52.210Z,502.00
2023-05-10T02:02:52.291Z,501.00
2023-05-10T02:03:52.392Z,504.00
2023-05-10T02:04:52.440Z,505.00
2023-05-10T02:05:52.502Z,504.00
2023-05-10T02:06:52.600Z,505.00
2023-05-10T02:07:52.662Z,506.00
2023-05-10T02:08:52.733Z,506.00
2023-05-10T02:09:52.814Z,506.00
2023-05-10T02:10:52.893Z,508.00
2023-05-10T02:11:52.969Z,510.00
2023-05-10T02:12:53.093Z,509.00
2023-05-10T02:13:53.118Z,511.00
2023-05-10T02:14:53.207Z,510.00
2023-05-10T02:15:53.272Z,511.00
2023-05-10T02:16:53.366Z,510.00
2023-05-10T02:17:53.463Z,512.00
2023-05-10T02:18:53.485Z,514.00
2023-05-10T02:19:53.554Z,512.00
2023-05-10T02:20:53.602Z,511.00
2023-05-10T02:21:53.668Z,510.00
2023-05-10T02:22:53.716Z,509.00
2023-05-10T02:23:53.750Z,507.00
2023-05-10T02:24:53.819Z,508.00
2023-05-10T02:25:53.907Z,510.00
2023-05-10T02:26:53.975Z,509.00
2023-05-10T02:27:54.016Z,505.00
2023-05-10T02:28:54.091Z,504.00
2023-05-10T02:29:54.124Z,503.00
2023-05-10T02:30:54.167Z,506.00
2023-05-10T02:31:54.292Z,505.00
2023-05-10T02:32:54.392Z,506.00
2023-05-10T02:33:54.284Z,505.00
2023-05-10T02:34:54.296Z,505.00
2023-05-10T02:35:54.302Z,505.00
2023-05-10T02:36:54.302Z,506.00
2023-05-10T02:37:54.317Z,504.00
2023-05-10T02:38:54.349Z,506.00
2023-05-10T02:39:54.333Z,506.00
2023-05-10T02:40:54.336Z,506.00
2023-05-10T02:41:54.380Z,508.00
2023-05-10T02:42:54.440Z,508.00
2023-05-10T02:43:54.497Z,508.00
2023-05-10T02:44:54.567Z,508.00
2023-05-10T02:45:54.744Z,512.00
2023-05-10T02:46:54.688Z,511.00
2023-05-10T02:47:54.784Z,508.00
2023-05-10T02:48:54.836Z,505.00
2023-05-10T02:49:54.870Z,505.00
2023-05-10T02:50:54.944Z,503.00
2023-05-10T02:51:55.017Z,498.00
2023-05-10T02:52:55.075Z,495.00
2023-05-10T02:53:55.147Z,493.00
2023-05-10T02:54:55.193Z,491.00
2023-05-10T02:55:55.239Z,490.00
2023-05-10T02:56:55.275Z,490.00
2023-05-10T02:57:55.294Z,489.00
2023-05-10T02:58:55.336Z,489.00
2023-05-10T02:59:55.359Z,489.00
2023-05-10T03:00:55.390Z,488.00
2023-05-10T03:01:55.468Z,487.00
2023-05-10T03:02:55.443Z,487.00
2023-05-10T03:03:55.405Z,486.00
2023-05-10T03:04:55.508Z,485.00
2023-05-10T03:05:55.420Z,486.00
2023-05-10T03:06:55.431Z,485.00
2023-05-10T03:07:55.436Z,485.00
2023-05-10T03:08:55.440Z,482.00
2023-05-10T03:09:55.448Z,483.00
2023-05-10T03:10:55.455Z,483.00
2023-05-10T03:11:55.471Z,485.00
2023-05-10T03:12:55.494Z,488.00
2023-05-10T03:13:55.495Z,490.00
2023-05-10T03:14:55.522Z,489.00
2023-05-10T03:15:55.534Z,490.00
2023-05-10T03:16:55.489Z,490.00
2023-05-10T03:17:55.623Z,489.00
2023-05-10T03:18:55.525Z,489.00
2023-05-10T03:19:55.525Z,488.00
2023-05-10T03:20:55.530Z,488.00
2023-05-10T03:21:55.535Z,489.00
2023-05-10T03:22:55.551Z,490.00
2023-05-10T03:23:55.553Z,489.00
2023-05-10T03:24:55.550Z,488.00
2023-05-10T03:25:55.549Z,489.00
2023-05-10T03:26:55.568Z,488.00
2023-05-10T03:27:55.565Z,488.00
2023-05-10T03:28:55.592Z,486.00
2023-05-10T03:29:55.587Z,487.00
2023-05-10T03:30:55.598Z,487.00
2023-05-10T03:33:14.611Z,491.00
2023-05-10T03:34:14.601Z,493.00
2023-05-10T03:35:14.594Z,492.00
2023-05-10T03:36:14.601Z,488.00
2023-05-10T03:37:14.568Z,485.00
2023-05-10T03:38:14.579Z,487.00
2023-05-10T03:39:14.549Z,487.00
2023-05-10T03:40:14.621Z,486.00
2023-05-10T03:41:14.533Z,486.00
2023-05-10T03:42:14.509Z,484.00
2023-05-10T03:43:14.521Z,483.00
2023-05-10T03:44:14.487Z,486.00
2023-05-10T03:45:14.498Z,486.00
2023-05-10T03:46:14.509Z,487.00
2023-05-10T03:47:14.455Z,487.00
2023-05-10T03:48:14.492Z,485.00
2023-05-10T03:49:14.443Z,484.00
2023-05-10T03:50:14.484Z,484.00
2023-05-10T03:51:14.412Z,483.00
2023-05-10T03:52:14.384Z,483.00
2023-05-10T03:53:14.367Z,483.00
2023-05-10T03:54:14.368Z,484.00
2023-05-10T03:55:14.352Z,483.00
2023-05-10T03:56:14.345Z,484.00
2023-05-10T03:57:14.323Z,483.00
2023-05-10T03:58:14.303Z,484.00
2023-05-10T03:59:14.299Z,484.00
2023-05-10T04:00:14.441Z,483.00
2023-05-10T04:01:14.251Z,483.00
2023-05-10T04:02:14.277Z,482.00
2023-05-10T04:03:14.327Z,484.00
2023-05-10T04:04:14.223Z,485.00
2023-05-10T04:05:14.213Z,484.00
2023-05-10T04:06:14.248Z,481.00
2023-05-10T04:07:14.176Z,481.00
2023-05-10T04:08:14.159Z,482.00
2023-05-10T04:09:14.160Z,483.00
2023-05-10T04:10:14.339Z,485.00
2023-05-10T04:11:14.108Z,483.00
2023-05-10T04:12:14.081Z,485.00
2023-05-10T04:13:14.070Z,484.00
2023-05-10T04:14:14.058Z,485.00
2023-05-10T04:15:14.083Z,485.00
2023-05-10T04:16:14.155Z,482.00
2023-05-10T04:17:14.228Z,484.00
2023-05-10T04:18:14.191Z,483.00
2023-05-10T04:19:14.222Z,482.00
2023-05-10T04:20:14.358Z,481.00
2023-05-10T04:21:14.303Z,478.00
2023-05-10T04:22:14.339Z,480.00
2023-05-10T04:23:14.366Z,480.00
2023-05-10T04:24:14.459Z,483.00
2023-05-10T04:25:14.471Z,483.00
2023-05-10T04:26:14.473Z,485.00
2023-05-10T04:27:14.508Z,483.00
2023-05-10T04:28:14.555Z,482.00
2023-05-10T04:29:14.609Z,483.00
2023-05-10T04:30:14.761Z,482.00
2023-05-10T04:31:14.650Z,482.00
2023-05-10T04:32:14.552Z,482.00
2023-05-10T04:33:14.546Z,484.00
2023-05-10T04:34:14.538Z,494.00
2023-05-10T04:35:14.509Z,495.00
2023-05-10T04:36:14.501Z,496.00
2023-05-10T04:37:14.510Z,494.00
2023-05-10T04:38:14.493Z,494.00
2023-05-10T04:39:14.554Z,492.00
2023-05-10T04:40:14.736Z,492.00
2023-05-10T04:41:14.627Z,491.00
2023-05-10T04:42:14.668Z,490.00
2023-05-10T04:43:14.650Z,493.00
2023-05-10T04:44:14.631Z,496.00
2023-05-10T04:45:14.627Z,495.00
2023-05-10T04:46:14.655Z,494.00
2023-05-10T04:47:14.611Z,491.00
2023-05-10T04:48:14.576Z,489.00
2023-05-10T04:49:14.579Z,490.00
2023-05-10T04:50:14.717Z,492.00
2023-05-10T04:51:14.587Z,490.00
2023-05-10T04:52:14.608Z,491.00
2023-05-10T04:53:15.993Z,491.00
2023-05-10T04:54:14.689Z,490.00
2023-05-10T04:55:14.764Z,490.00
2023-05-10T04:56:14.798Z,491.00
2023-05-10T04:57:14.856Z,492.00
2023-05-10T04:58:14.914Z,490.00
2023-05-10T04:59:14.955Z,492.00
2023-05-10T05:00:15.280Z,493.00
2023-05-10T05:01:15.064Z,495.00
2023-05-10T05:02:15.077Z,497.00
2023-05-10T05:03:15.278Z,496.00
2023-05-10T05:04:15.189Z,496.00
2023-05-10T05:05:15.217Z,497.00
2023-05-10T05:06:15.247Z,493.00
2023-05-10T05:07:15.308Z,493.00
2023-05-10T05:08:15.335Z,493.00
2023-05-10T05:09:15.400Z,491.00
2023-05-10T05:10:15.580Z,488.00
2023-05-10T05:11:15.468Z,488.00
2023-05-10T05:12:15.520Z,488.00
2023-05-10T05:13:15.581Z,485.00
2023-05-10T05:14:15.616Z,483.00
2023-05-10T05:15:15.675Z,486.00
2023-05-10T05:16:15.783Z,486.00
2023-05-10T05:17:15.765Z,487.00
2023-05-10T05:18:15.797Z,487.00
2023-05-10T05:19:15.841Z,484.00
2023-05-10T05:20:16.010Z,486.00
2023-05-10T05:21:15.810Z,485.00
2023-05-10T05:22:16.202Z,486.00
2023-05-10T05:23:15.797Z,489.00
2023-05-10T05:24:15.811Z,493.00
2023-05-10T05:25:15.781Z,492.00
2023-05-10T05:26:15.776Z,493.00
2023-05-10T05:27:15.772Z,490.00
2023-05-10T05:28:15.758Z,488.00
2023-05-10T05:29:15.785Z,490.00
2023-05-10T05:30:15.911Z,493.00
2023-05-10T05:31:15.810Z,496.00
2023-05-10T05:32:15.771Z,523.00
2023-05-10T05:33:15.770Z,576.00
2023-05-10T05:34:15.834Z,589.00
2023-05-10T05:35:16.255Z,614.00
2023-05-10T05:36:15.911Z,641.00
2023-05-10T05:37:15.967Z,574.00
2023-05-10T05:38:16.006Z,562.00
2023-05-10T05:39:16.031Z,560.00
2023-05-10T05:40:16.032Z,558.00
2023-05-10T05:41:16.047Z,561.00
2023-05-10T05:42:16.084Z,567.00
2023-05-10T05:43:16.177Z,561.00
2023-05-10T05:44:16.204Z,559.00
2023-05-10T05:45:16.449Z,564.00
2023-05-10T05:46:16.328Z,569.00
2023-05-10T05:47:16.367Z,568.00
2023-05-10T05:48:16.371Z,571.00
2023-05-10T05:49:16.380Z,576.00
2023-05-10T05:50:16.380Z,571.00
2023-05-10T05:51:16.418Z,568.00
2023-05-10T05:52:16.438Z,550.00
2023-05-10T05:53:16.393Z,548.00
2023-05-10T05:54:16.369Z,545.00
2023-05-10T05:55:16.737Z,589.00
2023-05-10T05:56:16.428Z,605.00
2023-05-10T05:57:16.417Z,600.00
2023-05-10T05:58:16.426Z,586.00
2023-05-10T05:59:16.445Z,576.00
2023-05-10T06:00:16.468Z,567.00
2023-05-10T06:01:16.438Z,562.00
2023-05-10T06:02:16.480Z,562.00
2023-05-10T06:03:16.597Z,561.00
2023-05-10T06:04:16.572Z,556.00
2023-05-10T06:05:16.726Z,555.00
2023-05-10T06:06:16.424Z,555.00
2023-05-10T06:07:16.434Z,553.00
2023-05-10T06:08:16.419Z,552.00
2023-05-10T06:09:16.429Z,550.00
2023-05-10T06:10:16.431Z,551.00
2023-05-10T06:11:16.415Z,553.00
2023-05-10T06:12:16.467Z,561.00
2023-05-10T06:13:16.494Z,572.00
2023-05-10T06:14:16.434Z,596.00
2023-05-10T06:15:16.565Z,650.00
2023-05-10T06:16:16.419Z,645.00
2023-05-10T06:17:16.385Z,653.00
2023-05-10T06:18:16.371Z,660.00
2023-05-10T06:19:16.354Z,669.00
2023-05-10T06:20:16.378Z,744.00
2023-05-10T06:21:16.339Z,766.00
2023-05-10T06:22:16.349Z,783.00
2023-05-10T06:23:16.365Z,803.00
2023-05-10T06:24:16.356Z,862.00
2023-05-10T06:25:16.644Z,862.00
2023-05-10T06:26:16.322Z,862.00
2023-05-10T06:27:16.306Z,867.00
2023-05-10T06:28:16.294Z,884.00
2023-05-10T06:29:16.299Z,912.00
2023-05-10T06:30:16.262Z,952.00
2023-05-10T06:31:16.391Z,960.00
2023-05-10T06:32:16.239Z,969.00
2023-05-10T06:33:16.221Z,1031.00
2023-05-10T06:34:16.209Z,1049.00
2023-05-10T06:35:16.651Z,1058.00
2023-05-10T06:36:16.172Z,1072.00
2023-05-10T06:37:16.165Z,1082.00
2023-05-10T06:38:16.159Z,1093.00
2023-05-10T06:39:16.137Z,1117.00
2023-05-10T06:40:16.122Z,1159.00
2023-05-10T06:41:16.106Z,1211.00
2023-05-10T06:42:16.095Z,1241.00
2023-05-10T06:43:16.078Z,1233.00
2023-05-10T06:44:16.046Z,1194.00
2023-05-10T06:45:16.378Z,1208.00
2023-05-10T06:46:16.099Z,1191.00
2023-05-10T06:47:15.992Z,1200.00
2023-05-10T06:48:16.075Z,1182.00
2023-05-10T06:49:16.074Z,1183.00
2023-05-10T06:50:16.101Z,1171.00
2023-05-10T06:51:16.095Z,1121.00
2023-05-10T06:52:16.226Z,1102.00
2023-05-10T06:53:16.134Z,1109.00
2023-05-10T06:54:16.140Z,1104.00
2023-05-10T06:55:16.406Z,1096.00
2023-05-10T06:56:16.232Z,1085.00
2023-05-10T06:57:30.690Z,997.00
2023-05-10T06:58:17.172Z,899.00
2023-05-10T06:59:16.262Z,874.00
2023-05-10T07:00:16.536Z,826.00
2023-05-10T07:01:16.303Z,808.00
2023-05-10T07:02:16.248Z,785.00
2023-05-10T07:03:16.206Z,770.00
2023-05-10T07:04:16.177Z,751.00
2023-05-10T07:05:16.372Z,756.00
2023-05-10T07:06:29.209Z,747.00
2023-05-10T07:07:17.077Z,676.00
2023-05-10T07:08:16.075Z,677.00
2023-05-10T07:09:16.068Z,693.00
2023-05-10T07:10:16.104Z,688.00
2023-05-10T07:11:16.068Z,700.00
2023-05-10T07:12:16.270Z,695.00
2023-05-10T07:13:16.187Z,680.00
2023-05-10T07:14:16.063Z,675.00
2023-05-10T07:15:16.248Z,691.00
2023-05-10T07:16:16.101Z,686.00
2023-05-10T07:17:16.097Z,674.00
2023-05-10T07:18:16.079Z,657.00
2023-05-10T07:19:16.081Z,645.00
2023-05-10T07:20:16.071Z,630.00
2023-05-10T07:21:16.268Z,620.00
2023-05-10T07:22:16.080Z,620.00
2023-05-10T07:23:16.074Z,621.00
2023-05-10T07:24:16.102Z,627.00
2023-05-10T07:25:16.338Z,632.00
2023-05-10T07:26:16.171Z,632.00
2023-05-10T07:27:16.219Z,637.00
2023-05-10T07:28:16.263Z,637.00
2023-05-10T07:29:16.331Z,630.00
2023-05-10T07:30:16.448Z,634.00
2023-05-10T07:31:16.428Z,687.00
2023-05-10T07:32:16.549Z,677.00
2023-05-10T07:33:16.513Z,664.00
2023-05-10T07:34:16.671Z,660.00
2023-05-10T07:35:16.835Z,654.00
2023-05-10T07:36:16.735Z,651.00
2023-05-10T07:37:16.774Z,657.00
2023-05-10T07:38:16.775Z,669.00
2023-05-10T07:39:26.685Z,677.00
2023-05-10T07:40:17.882Z,721.00
2023-05-10T07:41:16.762Z,716.00
2023-05-10T07:42:16.742Z,718.00
2023-05-10T07:43:16.740Z,718.00
2023-05-10T07:44:16.747Z,713.00
2023-05-10T07:45:17.089Z,711.00
2023-05-10T07:46:16.790Z,711.00
2023-05-10T07:47:16.723Z,704.00
2023-05-10T07:48:16.743Z,688.00
2023-05-10T07:49:16.710Z,674.00
2023-05-10T07:50:16.731Z,660.00
2023-05-10T07:51:16.754Z,650.00
2023-05-10T07:52:16.720Z,637.00
2023-05-10T07:53:16.876Z,607.00
2023-05-10T07:54:16.704Z,596.00
2023-05-10T07:55:16.872Z,588.00
2023-05-10T07:56:16.704Z,584.00
2023-05-10T07:57:16.657Z,580.00
2023-05-10T07:58:16.651Z,578.00
2023-05-10T07:59:16.654Z,575.00
2023-05-10T08:00:16.638Z,571.00
2023-05-10T08:01:16.744Z,565.00
2023-05-10T08:02:16.716Z,562.00
2023-05-10T08:03:16.741Z,559.00
2023-05-10T08:04:16.668Z,556.00
2023-05-10T08:05:17.060Z,555.00
2023-05-10T08:06:16.584Z,551.00
2023-05-10T08:07:16.582Z,550.00
2023-05-10T08:08:16.581Z,549.00
2023-05-10T08:09:16.558Z,544.00
2023-05-10T08:10:16.592Z,539.00
2023-05-10T08:11:16.511Z,536.00
2023-05-10T08:12:16.516Z,534.00
2023-05-10T08:13:16.538Z,536.00
2023-05-10T08:14:16.493Z,534.00
2023-05-10T08:15:16.837Z,533.00
2023-05-10T08:16:16.513Z,531.00
2023-05-10T08:17:17.340Z,531.00
2023-05-10T08:18:16.481Z,531.00
2023-05-10T08:19:16.429Z,529.00
2023-05-10T08:20:16.496Z,528.00
2023-05-10T08:21:16.500Z,528.00
2023-05-10T08:22:16.371Z,526.00
2023-05-10T08:23:16.442Z,524.00
2023-05-10T08:24:16.539Z,524.00
2023-05-10T08:25:16.685Z,523.00
2023-05-10T08:26:16.484Z,519.00
2023-05-10T08:27:16.457Z,514.00
2023-05-10T08:28:16.491Z,511.00
2023-05-10T08:29:16.531Z,509.00
2023-05-10T08:30:16.593Z,506.00
2023-05-10T08:31:16.674Z,505.00
2023-05-10T08:32:16.616Z,542.00
2023-05-10T08:33:16.636Z,549.00
2023-05-10T08:34:16.617Z,608.00
2023-05-10T08:35:17.059Z,604.00
2023-05-10T08:36:16.688Z,615.00
2023-05-10T08:37:16.707Z,627.00
2023-05-10T08:38:16.691Z,653.00
2023-05-10T08:39:29.411Z,675.00
2023-05-10T08:40:17.706Z,704.00
2023-05-10T08:41:16.656Z,742.00
2023-05-10T08:42:16.662Z,729.00
2023-05-10T08:43:16.644Z,730.00
2023-05-10T08:44:16.652Z,733.00
2023-05-10T08:45:16.910Z,752.00
2023-05-10T08:46:16.662Z,750.00
2023-05-10T08:47:16.678Z,802.00
2023-05-10T08:48:16.650Z,815.00
2023-05-10T08:49:16.567Z,890.00
2023-05-10T08:50:16.585Z,895.00
2023-05-10T08:51:16.566Z,893.00
2023-05-10T08:52:16.560Z,897.00
2023-05-10T08:53:16.590Z,887.00
2023-05-10T08:54:16.548Z,866.00
2023-05-10T08:55:17.128Z,842.00
2023-05-10T08:56:16.544Z,847.00
2023-05-10T08:57:16.535Z,836.00
2023-05-10T08:58:16.503Z,826.00
2023-05-10T08:59:16.510Z,783.00
2023-05-10T09:00:16.763Z,778.00
2023-05-10T09:01:16.491Z,774.00
2023-05-10T09:02:18.693Z,764.00
2023-05-10T09:03:16.542Z,738.00
2023-05-10T09:04:16.539Z,724.00
2023-05-10T09:05:16.694Z,722.00
2023-05-10T09:06:16.459Z,726.00
2023-05-10T09:07:16.465Z,724.00
2023-05-10T09:08:16.478Z,721.00
2023-05-10T09:09:16.424Z,714.00
2023-05-10T09:10:16.418Z,720.00
2023-05-10T09:11:16.381Z,713.00
2023-05-10T09:12:16.359Z,708.00
2023-05-10T09:13:16.417Z,700.00
2023-05-10T09:14:16.337Z,695.00
2023-05-10T09:15:16.563Z,696.00
2023-05-10T09:16:22.005Z,698.00
2023-05-10T09:17:17.441Z,699.00
2023-05-10T09:18:16.367Z,696.00
2023-05-10T09:19:16.298Z,696.00
2023-05-10T09:20:16.270Z,704.00
2023-05-10T09:21:16.258Z,708.00
2023-05-10T09:22:16.249Z,695.00
2023-05-10T09:23:16.262Z,690.00
2023-05-10T09:24:16.217Z,697.00
2023-05-10T09:25:16.614Z,701.00
2023-05-10T09:26:16.231Z,718.00
2023-05-10T09:27:16.206Z,710.00
2023-05-10T09:28:17.000Z,701.00
2023-05-10T09:29:17.499Z,697.00
2023-05-10T09:30:16.259Z,697.00
2023-05-10T09:31:16.245Z,697.00
2023-05-10T09:32:16.151Z,695.00
2023-05-10T09:33:16.145Z,698.00
2023-05-10T09:34:16.154Z,699.00
2023-05-10T09:35:16.350Z,704.00
2023-05-10T09:36:16.142Z,707.00
2023-05-10T09:37:16.151Z,708.00
2023-05-10T09:38:16.164Z,703.00
2023-05-10T09:39:16.195Z,702.00
2023-05-10T09:40:16.265Z,697.00
2023-05-10T09:41:16.302Z,699.00
2023-05-10T09:42:16.343Z,708.00
2023-05-10T09:43:16.383Z,718.00
2023-05-10T09:44:16.425Z,714.00
2023-05-10T09:45:16.582Z,696.00
2023-05-10T09:46:16.506Z,647.00
2023-05-10T09:47:16.467Z,685.00
2023-05-10T09:48:16.421Z,670.00
2023-05-10T09:49:16.420Z,665.00
2023-05-10T09:50:16.449Z,661.00
2023-05-10T09:51:16.439Z,667.00
2023-05-10T09:52:16.443Z,672.00
2023-05-10T09:53:16.450Z,678.00
2023-05-10T09:54:16.467Z,682.00
2023-05-10T09:55:16.703Z,680.00
2023-05-10T09:56:16.471Z,688.00
2023-05-10T09:57:16.471Z,701.00
2023-05-10T09:58:16.514Z,706.00
2023-05-10T09:59:16.669Z,713.00
2023-05-10T10:00:16.662Z,700.00
2023-05-10T10:01:16.700Z,690.00
2023-05-10T10:02:16.626Z,674.00
2023-05-10T10:03:16.620Z,663.00
2023-05-10T10:04:16.619Z,660.00
2023-05-10T10:05:16.755Z,667.00
2023-05-10T10:06:29.151Z,694.00
2023-05-10T10:07:17.569Z,705.00
2023-05-10T10:08:16.591Z,695.00
2023-05-10T10:09:16.557Z,668.00
2023-05-10T10:10:16.618Z,666.00
2023-05-10T10:11:16.591Z,680.00
2023-05-10T10:12:16.569Z,726.00
2023-05-10T10:13:16.559Z,796.00
2023-05-10T10:14:16.541Z,798.00
2023-05-10T10:15:16.918Z,801.00
2023-05-10T10:16:16.583Z,809.00
2023-05-10T10:17:16.536Z,819.00
2023-05-10T10:18:16.781Z,813.00
2023-05-10T10:19:16.582Z,814.00
2023-05-10T10:20:16.819Z,819.00
2023-05-10T10:21:16.631Z,822.00
2023-05-10T10:22:16.638Z,826.00
2023-05-10T10:23:17.599Z,830.00
2023-05-10T10:24:16.604Z,843.00
2023-05-10T10:25:16.921Z,856.00
2023-05-10T10:26:16.594Z,868.00
2023-05-10T10:27:16.589Z,886.00
2023-05-10T10:28:16.582Z,892.00
2023-05-10T10:29:16.553Z,880.00
2023-05-10T10:30:16.642Z,810.00
2023-05-10T10:31:16.583Z,749.00
2023-05-10T10:32:16.557Z,742.00
2023-05-10T10:33:27.391Z,729.00
2023-05-10T10:34:17.540Z,710.00
2023-05-10T10:35:16.727Z,695.00
2023-05-10T10:36:16.544Z,686.00
2023-05-10T10:37:16.531Z,683.00
2023-05-10T10:38:16.503Z,687.00
2023-05-10T10:39:16.504Z,682.00
2023-05-10T10:40:16.526Z,675.00
2023-05-10T10:41:16.521Z,693.00
2023-05-10T10:42:16.501Z,711.00
2023-05-10T10:43:16.505Z,725.00
2023-05-10T10:44:16.478Z,733.00
2023-05-10T10:45:16.704Z,756.00
2023-05-10T10:46:16.549Z,802.00
2023-05-10T10:47:16.490Z,840.00
2023-05-10T10:48:16.548Z,847.00
2023-05-10T10:49:16.495Z,884.00
2023-05-10T10:50:16.553Z,912.00
2023-05-10T10:51:16.519Z,922.00
2023-05-10T10:52:16.458Z,938.00
2023-05-10T10:53:16.502Z,937.00
2023-05-10T10:54:16.439Z,717.00
2023-05-10T10:55:16.640Z,686.00
2023-05-10T10:56:16.543Z,661.00
2023-05-10T10:57:16.635Z,635.00
2023-05-10T10:58:16.461Z,612.00
2023-05-10T10:59:16.474Z,602.00
2023-05-10T11:00:16.472Z,597.00
2023-05-10T11:01:16.633Z,593.00
2023-05-10T11:02:16.588Z,585.00
2023-05-10T11:03:16.620Z,572.00
2023-05-10T11:04:16.653Z,565.00
2023-05-10T11:05:16.845Z,557.00
2023-05-10T11:06:16.675Z,559.00
2023-05-10T11:07:16.667Z,563.00
2023-05-10T11:08:16.724Z,564.00
2023-05-10T11:09:16.728Z,567.00
2023-05-10T11:10:16.770Z,573.00
2023-05-10T11:11:16.916Z,583.00
2023-05-10T11:12:16.815Z,588.00
2023-05-10T11:13:16.857Z,590.00
2023-05-10T11:14:16.866Z,635.00
2023-05-10T11:15:17.203Z,643.00
2023-05-10T11:16:16.974Z,649.00
2023-05-10T11:17:17.056Z,654.00
2023-05-10T11:18:17.092Z,658.00
2023-05-10T11:19:17.037Z,671.00
2023-05-10T11:20:17.359Z,731.00
2023-05-10T11:21:17.072Z,783.00
2023-05-10T11:22:17.051Z,795.00
2023-05-10T11:23:17.096Z,767.00
2023-05-10T11:24:17.072Z,760.00
2023-05-10T11:25:17.066Z,774.00
2023-05-10T11:26:17.226Z,784.00
2023-05-10T11:27:17.051Z,789.00
2023-05-10T11:28:17.052Z,791.00
2023-05-10T11:29:17.174Z,797.00
2023-05-10T11:30:17.363Z,802.00
2023-05-10T11:31:17.239Z,803.00
2023-05-10T11:32:17.224Z,797.00
2023-05-10T11:33:17.201Z,795.00
2023-05-10T11:34:17.236Z,793.00
2023-05-10T11:35:17.262Z,790.00
2023-05-10T11:36:17.312Z,785.00
2023-05-10T11:37:17.317Z,781.00
2023-05-10T11:38:17.343Z,779.00
2023-05-10T11:39:17.369Z,777.00
2023-05-10T11:40:17.537Z,777.00
2023-05-10T11:41:17.466Z,786.00
2023-05-10T11:42:17.449Z,781.00
2023-05-10T11:43:17.424Z,772.00
2023-05-10T11:44:17.407Z,763.00
2023-05-10T11:45:17.418Z,758.00
2023-05-10T11:46:17.487Z,754.00
2023-05-10T11:47:17.381Z,751.00
2023-05-10T11:48:17.398Z,749.00
2023-05-10T11:49:17.371Z,748.00
2023-05-10T11:50:17.531Z,747.00
2023-05-10T11:51:17.372Z,744.00
2023-05-10T11:52:17.362Z,737.00
2023-05-10T11:53:17.350Z,735.00
2023-05-10T11:54:17.329Z,747.00
2023-05-10T11:55:17.345Z,750.00
2023-05-10T11:56:17.317Z,753.00
2023-05-10T11:57:17.305Z,752.00
2023-05-10T11:58:17.294Z,749.00
2023-05-10T11:59:17.288Z,673.00
2023-05-10T12:00:17.635Z,655.00
2023-05-10T12:01:17.283Z,646.00
2023-05-10T12:02:17.312Z,634.00
2023-05-10T12:03:17.373Z,626.00
2023-05-10T12:04:17.572Z,613.00
2023-05-10T12:05:17.265Z,597.00
2023-05-10T12:06:17.267Z,585.00
2023-05-10T12:07:17.267Z,571.00
2023-05-10T12:08:17.281Z,561.00
2023-05-10T12:09:19.245Z,555.00
2023-05-10T12:10:18.488Z,543.00
2023-05-10T12:11:17.272Z,538.00
2023-05-10T12:12:17.354Z,528.00
2023-05-10T12:13:17.272Z,524.00
2023-05-10T12:14:17.293Z,522.00
2023-05-10T12:15:17.288Z,518.00
2023-05-10T12:16:17.341Z,518.00
2023-05-10T12:17:17.309Z,518.00
2023-05-10T12:18:17.457Z,514.00
2023-05-10T12:19:17.392Z,511.00
2023-05-10T12:20:17.827Z,507.00
2023-05-10T12:21:17.513Z,506.00
2023-05-10T12:22:17.550Z,503.00
2023-05-10T12:23:17.540Z,503.00
2023-05-10T12:24:17.559Z,504.00
2023-05-10T12:25:17.579Z,504.00
2023-05-10T12:26:17.586Z,505.00
2023-05-10T12:27:17.576Z,504.00
2023-05-10T12:28:17.605Z,500.00
2023-05-10T12:29:17.646Z,501.00